createdAt,value
2022-08-16T00:02:22.206Z,12.73
2022-08-16T00:04:51.111Z,12.80
2022-08-16T00:07:17.949Z,13.37
2022-08-16T00:09:44.913Z,13.17
2022-08-16T00:12:11.185Z,13.07
2022-08-16T00:14:44.625Z,13.43
2022-08-16T00:17:18.215Z,13.10
2022-08-16T00:19:44.555Z,13.53
2022-08-16T00:22:13.381Z,13.00
2022-08-16T00:24:40.121Z,13.13
2022-08-16T00:27:11.093Z,12.77
2022-08-16T00:29:37.626Z,13.63
2022-08-16T00:32:06.432Z,12.90
2022-08-16T00:34:41.240Z,13.20
2022-08-16T00:37:16.877Z,12.40
2022-08-16T00:39:46.920Z,12.53
2022-08-16T00:42:14.496Z,12.63
2022-08-16T00:45:06.502Z,12.70
2022-08-16T00:47:38.876Z,12.60
2022-08-16T00:50:11.472Z,12.90
2022-08-16T00:52:50.877Z,12.37
2022-08-16T00:55:23.758Z,12.10
2022-08-16T00:57:59.743Z,12.30
2022-08-16T01:00:30.582Z,11.80
2022-08-16T01:03:00.512Z,11.90
2022-08-16T01:05:28.183Z,12.60
2022-08-16T01:07:56.780Z,12.10
2022-08-16T01:10:32.213Z,12.00
2022-08-16T01:13:05.777Z,12.07
2022-08-16T01:15:35.497Z,12.20
2022-08-16T01:18:04.041Z,12.43
2022-08-16T01:20:34.209Z,12.07
2022-08-16T01:23:12.088Z,12.20
2022-08-16T01:25:44.063Z,12.10
2022-08-16T01:28:20.062Z,12.37
2022-08-16T01:30:57.105Z,12.13
2022-08-16T01:33:24.862Z,11.30
2022-08-16T01:36:11.645Z,11.57
2022-08-16T01:38:46.898Z,11.40
2022-08-16T01:41:26.047Z,11.60
2022-08-16T01:44:00.982Z,11.80
2022-08-16T01:46:39.449Z,11.33
2022-08-16T01:49:45.728Z,10.83
2022-08-16T01:52:28.294Z,11.10
2022-08-16T01:55:09.601Z,11.00
2022-08-16T01:57:37.958Z,11.03
2022-08-16T02:00:19.181Z,11.13
2022-08-16T02:02:46.742Z,11.30
2022-08-16T02:05:19.425Z,11.10
2022-08-16T02:07:51.843Z,11.10
2022-08-16T02:10:19.258Z,11.47
2022-08-16T02:12:51.373Z,11.17
2022-08-16T02:15:26.969Z,11.47
2022-08-16T02:17:57.558Z,11.17
2022-08-16T02:20:27.913Z,11.23
2022-08-16T02:22:56.850Z,11.93
2022-08-16T02:25:24.268Z,11.80
2022-08-16T02:27:51.501Z,11.77
2022-08-16T02:30:36.540Z,10.90
2022-08-16T02:33:10.084Z,11.00
2022-08-16T02:35:54.470Z,11.50
2022-08-16T02:38:26.494Z,11.43
2022-08-16T02:40:54.694Z,11.43
2022-08-16T02:43:27.677Z,11.37
2022-08-16T02:45:57.633Z,11.23
2022-08-16T02:48:30.014Z,11.60
2022-08-16T02:51:06.146Z,10.83
2022-08-16T02:53:34.483Z,11.53
2022-08-16T02:56:01.835Z,11.53
2022-08-16T02:58:28.236Z,12.53
2022-08-16T03:00:57.237Z,11.70
2022-08-16T03:03:26.543Z,11.87
2022-08-16T03:05:53.775Z,11.83
2022-08-16T03:08:50.652Z,11.27
2022-08-16T03:11:16.653Z,11.70
2022-08-16T03:13:51.618Z,11.93
2022-08-16T03:16:38.296Z,11.73
2022-08-16T03:19:08.886Z,11.40
2022-08-16T03:21:38.143Z,11.90
2022-08-16T03:24:28.690Z,11.80
2022-08-16T03:26:58.139Z,11.63
2022-08-16T03:29:31.487Z,11.37
2022-08-16T03:32:01.490Z,11.73
2022-08-16T03:34:30.648Z,12.00
2022-08-16T03:36:57.623Z,12.03
2022-08-16T03:39:24.388Z,11.17
2022-08-16T03:41:59.925Z,11.37
2022-08-16T03:44:43.983Z,11.17
2022-08-16T03:47:11.824Z,11.93
2022-08-16T03:49:38.642Z,11.53
2022-08-16T03:52:06.888Z,11.33
2022-08-16T03:54:35.620Z,11.33
2022-08-16T03:57:05.156Z,11.53
2022-08-16T03:59:32.659Z,11.17
2022-08-16T04:02:12.146Z,11.40
2022-08-16T04:04:50.530Z,11.57
2022-08-16T04:07:17.355Z,11.03
2022-08-16T04:09:46.482Z,11.37
2022-08-16T04:12:52.814Z,12.60
2022-08-16T04:15:02.327Z,11.10
2022-08-16T04:17:30.583Z,11.43
2022-08-16T04:19:58.107Z,11.20
2022-08-16T04:22:27.603Z,11.53
2022-08-16T04:24:59.304Z,11.10
2022-08-16T04:27:32.019Z,11.43
2022-08-16T04:30:02.776Z,11.40
2022-08-16T04:32:32.985Z,12.23
2022-08-16T04:35:07.577Z,11.30
2022-08-16T04:37:42.224Z,11.40
2022-08-16T04:40:21.723Z,11.47
2022-08-16T04:42:49.981Z,11.40
2022-08-16T04:45:17.684Z,11.30
2022-08-16T04:47:45.286Z,11.47
2022-08-16T04:50:30.304Z,12.13
2022-08-16T04:53:18.163Z,11.10
2022-08-16T04:55:52.996Z,12.00
2022-08-16T04:58:44.894Z,11.53
2022-08-16T05:01:08.035Z,11.87
2022-08-16T05:03:35.752Z,11.77
2022-08-16T05:06:09.389Z,11.80
2022-08-16T05:08:36.181Z,12.70
2022-08-16T05:11:10.928Z,13.10
2022-08-16T05:13:42.463Z,12.80
2022-08-16T05:16:21.737Z,12.57
2022-08-16T05:18:56.750Z,12.30
2022-08-16T05:21:25.110Z,12.57
2022-08-16T05:24:00.408Z,12.70
2022-08-16T05:26:31.856Z,12.50
2022-08-16T05:29:00.192Z,12.43
2022-08-16T05:31:30.534Z,12.50
2022-08-16T05:33:59.961Z,12.20
2022-08-16T05:36:36.514Z,12.60
2022-08-16T05:39:06.271Z,12.77
2022-08-16T05:41:32.772Z,12.63
2022-08-16T05:44:23.062Z,12.33
2022-08-16T05:47:00.136Z,12.37
2022-08-16T05:49:38.691Z,12.70
2022-08-16T05:52:11.528Z,12.77
2022-08-16T05:54:46.641Z,13.03
2022-08-16T05:57:18.563Z,12.67
2022-08-16T05:59:50.634Z,12.70
2022-08-16T06:02:33.491Z,12.40
2022-08-16T06:05:03.880Z,12.80
2022-08-16T06:07:32.023Z,12.80
2022-08-16T06:10:07.017Z,12.53
2022-08-16T06:12:36.915Z,12.77
2022-08-16T06:15:10.294Z,12.93
2022-08-16T06:17:43.291Z,12.43
2022-08-16T06:20:35.947Z,13.00
2022-08-16T06:23:17.065Z,13.30
2022-08-16T06:26:00.061Z,12.83
2022-08-16T06:28:35.684Z,13.43
2022-08-16T06:31:05.968Z,13.83
2022-08-16T06:33:41.311Z,13.40
2022-08-16T06:36:09.706Z,12.33
2022-08-16T06:38:37.724Z,13.43
2022-08-16T06:41:14.375Z,13.20
2022-08-16T06:43:42.558Z,13.60
2022-08-16T06:46:33.578Z,13.67
2022-08-16T06:49:08.595Z,13.57
2022-08-16T06:51:45.967Z,12.67
2022-08-16T06:54:18.378Z,13.00
2022-08-16T06:56:44.687Z,12.70
2022-08-16T06:59:14.135Z,13.07
2022-08-16T07:01:54.437Z,12.90
2022-08-16T07:04:33.337Z,13.30
2022-08-16T07:07:15.512Z,13.00
2022-08-16T07:09:42.304Z,13.20
2022-08-16T07:12:08.923Z,12.90
2022-08-16T07:14:39.672Z,13.27
2022-08-16T07:17:07.899Z,13.63
2022-08-16T07:20:02.907Z,13.73
2022-08-16T07:22:38.359Z,13.40
2022-08-16T07:25:13.501Z,12.97
2022-08-16T07:27:41.113Z,12.63
2022-08-16T07:30:38.457Z,12.77
2022-08-16T07:33:01.748Z,13.10
2022-08-16T07:35:29.143Z,12.83
2022-08-16T07:37:55.343Z,12.60
2022-08-16T07:41:00.698Z,12.80
2022-08-16T07:43:29.356Z,11.90
2022-08-16T07:46:01.408Z,12.43
2022-08-16T07:48:30.287Z,12.53
2022-08-16T07:50:59.195Z,12.60
2022-08-16T07:53:30.137Z,11.97
2022-08-16T07:55:58.645Z,11.70
2022-08-16T07:58:33.672Z,11.70
2022-08-16T08:01:05.902Z,11.97
2022-08-16T08:03:44.945Z,12.30
2022-08-16T08:06:17.257Z,12.10
2022-08-16T08:08:51.128Z,11.57
2022-08-16T08:11:21.809Z,11.60
2022-08-16T08:13:52.339Z,11.17
2022-08-16T08:16:21.339Z,11.50
2022-08-16T08:18:50.604Z,12.03
2022-08-16T08:21:27.194Z,12.40
2022-08-16T08:23:56.959Z,11.70
2022-08-16T08:26:24.608Z,12.00
2022-08-16T08:28:51.288Z,11.97
2022-08-16T08:31:18.420Z,11.77
2022-08-16T08:33:47.362Z,12.20
2022-08-16T08:36:32.905Z,12.23
2022-08-16T08:39:13.186Z,11.63
2022-08-16T08:41:46.475Z,11.87
2022-08-16T08:44:28.663Z,11.90
2022-08-16T08:47:09.274Z,12.70
2022-08-16T08:49:46.705Z,11.73
2022-08-16T08:52:34.190Z,11.40
2022-08-16T08:55:10.559Z,11.73
2022-08-16T08:57:40.585Z,11.13
2022-08-16T09:00:22.536Z,12.10
2022-08-16T09:02:56.774Z,11.80
2022-08-16T09:05:25.589Z,12.03
2022-08-16T09:08:06.037Z,12.10
2022-08-16T09:10:46.690Z,12.00
2022-08-16T09:13:26.033Z,11.97
2022-08-16T09:15:59.698Z,12.40
2022-08-16T09:18:35.562Z,11.87
2022-08-16T09:21:06.464Z,11.83
2022-08-16T09:23:36.721Z,11.27
2022-08-16T09:26:44.418Z,11.50
2022-08-16T09:29:14.774Z,11.30
2022-08-16T09:31:41.203Z,11.60
2022-08-16T09:34:08.920Z,11.90
2022-08-16T09:36:35.183Z,11.47
2022-08-16T09:39:03.252Z,12.17
2022-08-16T09:41:31.014Z,12.60
2022-08-16T09:43:59.862Z,12.20
2022-08-16T09:46:45.045Z,12.43
2022-08-16T09:49:14.081Z,12.20
2022-08-16T09:51:42.316Z,12.13
2022-08-16T09:54:10.194Z,12.60
2022-08-16T09:56:38.033Z,12.70
2022-08-16T09:59:08.491Z,13.40
2022-08-16T10:01:43.506Z,12.97
2022-08-16T10:04:31.411Z,13.13
2022-08-16T10:07:03.154Z,12.57
2022-08-16T10:09:53.621Z,13.10
2022-08-16T10:12:45.392Z,14.23
2022-08-16T10:15:22.131Z,13.90
2022-08-16T10:18:00.413Z,13.50
2022-08-16T10:20:34.086Z,13.10
2022-08-16T10:23:06.780Z,12.67
2022-08-16T10:27:20.232Z,13.03
2022-08-16T10:28:29.517Z,13.20
2022-08-16T10:30:59.425Z,12.40
2022-08-16T10:33:27.286Z,12.80
2022-08-16T10:35:57.671Z,13.13
2022-08-16T10:38:28.298Z,12.80
2022-08-16T10:40:54.630Z,12.50
2022-08-16T10:43:20.887Z,12.57
2022-08-16T10:46:00.188Z,12.53
2022-08-16T10:48:28.903Z,11.87
2022-08-16T10:50:57.575Z,12.00
2022-08-16T10:53:27.098Z,12.70
2022-08-16T10:56:51.907Z,11.87
2022-08-16T10:58:57.199Z,12.20
2022-08-16T11:01:40.151Z,11.23
2022-08-16T11:09:43.851Z,11.50
2022-08-16T11:12:14.315Z,11.40
2022-08-16T11:15:11.416Z,12.17
2022-08-16T11:17:28.007Z,11.87
2022-08-16T11:20:41.130Z,12.50
2022-08-16T11:22:48.327Z,11.60
2022-08-16T11:28:09.271Z,12.97
2022-08-16T11:30:39.180Z,13.53
2022-08-16T11:33:08.301Z,12.83
2022-08-16T11:38:47.213Z,12.90
2022-08-16T11:41:09.404Z,12.60
2022-08-16T11:43:37.837Z,12.63
2022-08-16T11:46:44.917Z,12.90
2022-08-16T11:48:58.880Z,12.77
2022-08-16T11:51:25.025Z,14.93
2022-08-16T11:53:52.009Z,12.90
2022-08-16T11:56:19.875Z,13.07
2022-08-16T11:59:05.252Z,13.27
2022-08-16T12:01:55.380Z,14.10
2022-08-16T12:04:19.621Z,12.70
2022-08-16T12:06:48.854Z,13.63
2022-08-16T12:09:16.496Z,12.67
2022-08-16T12:11:44.151Z,13.30
2022-08-16T12:14:13.554Z,12.90
2022-08-16T12:16:39.726Z,13.27
2022-08-16T12:19:15.186Z,13.13
2022-08-16T12:21:58.055Z,13.07
2022-08-16T12:24:26.741Z,12.80
2022-08-16T12:26:53.937Z,12.73
2022-08-16T12:29:21.534Z,13.17
2022-08-16T12:32:00.512Z,13.60
2022-08-16T12:34:29.274Z,13.17
2022-08-16T12:36:56.192Z,13.70
2022-08-16T12:39:23.123Z,13.50
2022-08-16T12:41:49.400Z,13.70
2022-08-16T12:44:19.940Z,12.83
2022-08-16T12:47:06.407Z,13.40
2022-08-16T12:49:32.842Z,13.40
2022-08-16T12:52:08.763Z,13.80
2022-08-16T12:54:36.751Z,14.10
2022-08-16T12:57:03.404Z,13.37
2022-08-16T12:59:30.995Z,13.80
2022-08-16T13:02:00.018Z,13.77
2022-08-16T13:04:33.248Z,15.17
2022-08-16T13:09:42.277Z,14.27
2022-08-16T13:12:23.000Z,14.07
2022-08-16T13:14:53.095Z,13.73
2022-08-16T13:17:26.403Z,14.00
2022-08-16T13:20:07.334Z,13.80
2022-08-16T13:22:36.837Z,14.83
2022-08-16T13:25:08.884Z,14.77
2022-08-16T13:28:02.115Z,14.50
2022-08-16T13:30:36.242Z,14.50
2022-08-16T13:33:11.493Z,14.90
2022-08-16T13:35:43.521Z,14.37
2022-08-16T13:38:24.798Z,15.17
2022-08-16T13:40:56.175Z,15.50
2022-08-16T13:43:27.217Z,15.60
2022-08-16T13:45:55.764Z,14.90
2022-08-16T13:48:26.234Z,14.93
2022-08-16T13:51:04.416Z,14.87
2022-08-16T13:53:31.100Z,13.50
2022-08-16T13:55:59.447Z,14.27
2022-08-16T13:58:35.659Z,14.50
2022-08-16T14:01:09.681Z,14.60
2022-08-16T14:03:39.329Z,14.83
2022-08-16T14:06:10.934Z,14.10
2022-08-16T14:08:43.002Z,15.20
2022-08-16T14:11:14.400Z,14.20
2022-08-16T14:13:42.253Z,14.50
2022-08-16T14:16:12.732Z,15.17
2022-08-16T14:18:52.726Z,14.17
2022-08-16T14:21:22.156Z,14.63
2022-08-16T14:23:51.485Z,14.70
2022-08-16T14:26:18.029Z,15.37
2022-08-16T14:28:45.432Z,14.73
2022-08-16T14:31:12.220Z,15.17
2022-08-16T14:33:38.429Z,14.20
2022-08-16T14:36:06.297Z,14.20
2022-08-16T14:38:39.306Z,14.73
2022-08-16T14:41:06.914Z,14.77
2022-08-16T14:43:36.862Z,14.20
2022-08-16T14:46:04.057Z,14.47
2022-08-16T14:48:33.925Z,14.00
2022-08-16T14:51:00.406Z,15.03
2022-08-16T14:53:28.172Z,13.40
2022-08-16T14:55:54.751Z,13.97
2022-08-16T14:58:34.844Z,14.60
2022-08-16T15:01:03.966Z,13.70
2022-08-16T15:03:30.364Z,14.57
2022-08-16T15:05:59.949Z,13.63
2022-08-16T15:08:36.275Z,14.43
2022-08-16T15:11:05.496Z,14.07
2022-08-16T15:13:31.999Z,14.13
2022-08-16T15:16:02.487Z,13.93
2022-08-16T15:18:32.009Z,14.53
2022-08-16T15:21:03.292Z,14.00
2022-08-16T15:23:30.946Z,13.77
2022-08-16T15:26:03.470Z,13.03
2022-08-16T15:28:32.512Z,14.17
2022-08-16T15:31:03.883Z,13.20
2022-08-16T15:33:33.233Z,13.60
2022-08-16T15:36:00.066Z,13.70
2022-08-16T15:38:57.639Z,13.87
2022-08-16T15:41:38.906Z,13.17
2022-08-16T15:44:11.763Z,13.23
2022-08-16T15:46:56.730Z,12.70
2022-08-16T15:49:34.709Z,12.27
2022-08-16T15:52:07.466Z,13.40
2022-08-16T15:54:37.772Z,13.10
2022-08-16T15:57:21.825Z,13.07
2022-08-16T15:59:52.693Z,12.83
2022-08-16T16:02:27.465Z,13.13
2022-08-16T16:04:54.402Z,14.17
2022-08-16T16:07:21.565Z,12.73
2022-08-16T16:09:48.564Z,13.83
2022-08-16T16:12:41.905Z,13.83
2022-08-16T16:15:03.533Z,13.60
2022-08-16T16:17:30.156Z,14.30
2022-08-16T16:19:57.157Z,13.47
2022-08-16T16:22:25.366Z,13.80
2022-08-16T16:24:52.772Z,12.93
2022-08-16T16:27:18.926Z,13.37
2022-08-16T16:29:57.764Z,14.53
2022-08-16T16:32:34.321Z,13.33
2022-08-16T16:35:06.590Z,14.10
2022-08-16T16:37:32.998Z,13.73
2022-08-16T16:39:59.666Z,14.03
2022-08-16T16:42:30.091Z,13.80
2022-08-16T16:45:01.188Z,13.33
2022-08-16T16:47:30.102Z,13.30
2022-08-16T16:50:08.818Z,13.70
2022-08-16T16:52:44.815Z,12.87
2022-08-16T16:55:15.383Z,14.10
2022-08-16T16:58:35.053Z,13.17
2022-08-16T17:01:02.057Z,13.60
2022-08-16T17:03:28.288Z,13.60
2022-08-16T17:05:58.727Z,12.93
2022-08-16T17:08:29.220Z,14.10
2022-08-16T17:10:55.820Z,14.33
2022-08-16T17:13:24.397Z,12.87
2022-08-16T17:15:52.638Z,13.83
2022-08-16T17:19:16.502Z,13.43
2022-08-16T17:21:07.728Z,13.33
2022-08-16T17:23:58.779Z,12.70
2022-08-16T17:26:21.907Z,12.07
2022-08-16T17:29:02.161Z,12.50
2022-08-16T17:31:41.033Z,12.87
2022-08-16T17:34:28.852Z,13.10
2022-08-16T17:37:00.299Z,13.03
2022-08-16T17:39:29.525Z,13.53
2022-08-16T17:41:58.133Z,12.70
2022-08-16T17:44:24.954Z,13.00
2022-08-16T17:46:53.045Z,13.53
2022-08-16T17:49:20.748Z,12.90
2022-08-16T17:51:47.075Z,13.17
2022-08-16T17:54:20.234Z,13.50
2022-08-16T17:57:00.681Z,12.97
2022-08-16T17:59:28.242Z,11.90
2022-08-16T18:01:55.424Z,12.80
2022-08-16T18:04:48.047Z,12.13
2022-08-16T18:07:08.530Z,13.00
2022-08-16T18:09:36.461Z,13.03
2022-08-16T18:12:41.592Z,12.07
2022-08-16T18:15:02.551Z,12.47
2022-08-16T18:17:28.734Z,12.03
2022-08-16T18:19:54.963Z,11.83
2022-08-16T18:22:30.718Z,15.10
2022-08-16T18:24:58.093Z,11.60
2022-08-16T18:27:25.683Z,12.83
2022-08-16T18:29:52.861Z,12.67
2022-08-16T18:32:24.934Z,13.60
2022-08-16T18:34:54.166Z,12.23
2022-08-16T18:37:24.257Z,13.53
2022-08-16T18:39:50.542Z,24.30
2022-08-16T18:42:16.741Z,19.50
2022-08-16T18:44:45.768Z,19.97
2022-08-16T18:47:11.927Z,27.33
2022-08-16T18:49:38.380Z,18.90
2022-08-16T18:52:04.970Z,23.93
2022-08-16T18:54:33.142Z,23.03
2022-08-16T18:56:59.388Z,21.80
2022-08-16T18:59:28.278Z,14.47
2022-08-16T19:02:00.079Z,30.67
2022-08-16T19:04:55.562Z,33.27
2022-08-16T19:07:22.298Z,35.50
2022-08-16T19:09:49.286Z,32.63
2022-08-16T19:12:15.796Z,29.47
2022-08-16T19:14:44.672Z,17.53
2022-08-16T19:17:11.051Z,28.80
2022-08-16T19:19:37.410Z,19.93
2022-08-16T19:22:05.911Z,27.37
2022-08-16T19:24:32.562Z,18.70
2022-08-16T19:26:59.377Z,15.60
2022-08-16T19:29:28.494Z,13.97
2022-08-16T19:31:55.229Z,15.20
2022-08-16T19:34:21.856Z,13.93
2022-08-16T19:36:48.734Z,13.27
2022-08-16T19:39:15.721Z,14.50
2022-08-16T19:41:52.039Z,14.97
2022-08-16T19:44:21.676Z,14.27
2022-08-16T19:46:48.905Z,14.43
2022-08-16T19:49:16.058Z,14.33
2022-08-16T19:51:47.091Z,14.67
2022-08-16T19:54:13.911Z,14.20
2022-08-16T19:56:40.975Z,14.03
2022-08-16T19:59:40.472Z,14.33
2022-08-16T20:01:56.101Z,18.90
2022-08-16T20:04:24.792Z,14.30
2022-08-16T20:06:53.692Z,15.33
2022-08-16T20:09:22.577Z,14.20
2022-08-16T20:11:52.270Z,14.10
2022-08-16T20:14:25.303Z,14.63
2022-08-16T20:16:54.735Z,14.10
2022-08-16T20:19:21.630Z,13.70
2022-08-16T20:21:48.642Z,13.50
2022-08-16T20:24:33.308Z,13.67
2022-08-16T20:27:02.350Z,14.17
2022-08-16T20:29:29.411Z,15.43
2022-08-16T20:31:56.549Z,15.40
2022-08-16T20:34:23.496Z,14.77
2022-08-16T20:36:50.605Z,15.07
2022-08-16T20:39:17.725Z,16.00
2022-08-16T20:41:44.739Z,14.60
2022-08-16T20:44:12.817Z,14.23
2022-08-16T20:46:40.731Z,13.90
2022-08-16T20:49:10.184Z,14.10
2022-08-16T20:51:49.705Z,14.03
2022-08-16T20:54:18.974Z,14.40
2022-08-16T20:56:45.887Z,13.80
2022-08-16T20:59:12.821Z,13.50
2022-08-16T21:01:47.003Z,13.10
2022-08-16T21:04:22.101Z,12.83
2022-08-16T21:06:54.226Z,13.90
2022-08-16T21:09:33.503Z,14.63
2022-08-16T21:12:13.772Z,13.00
2022-08-16T21:14:45.193Z,13.63
2022-08-16T21:17:13.637Z,13.27
2022-08-16T21:19:40.619Z,13.60
2022-08-16T21:22:25.464Z,12.87
2022-08-16T21:24:53.989Z,13.60
2022-08-16T21:27:21.576Z,13.90
2022-08-16T21:29:52.549Z,13.53
2022-08-16T21:32:35.211Z,12.80
2022-08-16T21:35:11.530Z,13.57
2022-08-16T21:37:39.423Z,13.33
2022-08-16T21:40:09.034Z,13.33
2022-08-16T21:42:37.450Z,14.10
2022-08-16T21:45:05.097Z,13.37
2022-08-16T21:47:32.063Z,13.60
2022-08-16T21:49:59.357Z,13.87
2022-08-16T21:52:27.006Z,14.10
2022-08-16T21:54:56.994Z,13.77
2022-08-16T21:57:24.264Z,14.33
2022-08-16T21:59:55.030Z,13.87
2022-08-16T22:02:24.173Z,14.23
2022-08-16T22:04:51.785Z,12.87
2022-08-16T22:07:18.833Z,12.87
2022-08-16T22:09:47.422Z,13.27
2022-08-16T22:12:26.353Z,13.20
2022-08-16T22:14:54.516Z,13.70
2022-08-16T22:17:21.865Z,13.00
2022-08-16T22:19:48.908Z,13.97
2022-08-16T22:22:16.972Z,13.63
2022-08-16T22:24:45.405Z,13.20
2022-08-16T22:27:12.264Z,13.40
2022-08-16T22:29:42.202Z,12.67
2022-08-16T22:32:09.800Z,13.30
2022-08-16T22:34:36.658Z,12.77
2022-08-16T22:37:03.673Z,12.90
2022-08-16T22:39:31.299Z,13.67
2022-08-16T22:41:58.911Z,12.80
2022-08-16T22:44:26.127Z,13.67
2022-08-16T22:46:53.106Z,14.17
2022-08-16T22:49:20.040Z,13.93
2022-08-16T22:51:47.164Z,13.33
2022-08-16T22:54:43.876Z,12.50
2022-08-16T22:57:01.627Z,13.37
2022-08-16T22:59:30.404Z,13.33
2022-08-16T23:01:58.715Z,13.63
2022-08-16T23:04:25.992Z,13.57
2022-08-16T23:06:53.009Z,13.23
2022-08-16T23:09:20.265Z,13.50
2022-08-16T23:11:47.245Z,13.73
2022-08-16T23:14:15.566Z,13.67
2022-08-16T23:16:43.266Z,12.87
2022-08-16T23:19:12.443Z,13.20
2022-08-16T23:21:41.794Z,13.83
2022-08-16T23:24:08.957Z,13.47
2022-08-16T23:26:46.460Z,13.23
2022-08-16T23:29:24.476Z,12.63
2022-08-16T23:31:55.875Z,12.60
2022-08-16T23:34:23.217Z,11.90
2022-08-16T23:36:50.249Z,13.53
2022-08-16T23:39:17.288Z,12.10
2022-08-16T23:41:44.618Z,12.60
2022-08-16T23:44:55.769Z,12.83
2022-08-16T23:46:59.366Z,12.87
2022-08-16T23:49:58.105Z,12.80
2022-08-16T23:52:13.261Z,12.93
2022-08-16T23:54:40.129Z,12.53
2022-08-16T23:57:08.460Z,14.17
2022-08-16T23:59:48.675Z,12.80
